sensor_id;sensor_type;location;lat;lon;timestamp;temperature;humidity
24902;DHT22;31328;51.402;0.016;2022-10-13T00:00:42;14.50;99.90
24902;DHT22;31328;51.402;0.016;2022-10-13T00:03:09;14.50;99.90
24902;DHT22;31328;51.402;0.016;2022-10-13T00:05:44;14.50;99.90
24902;DHT22;31328;51.402;0.016;2022-10-13T00:08:11;14.50;99.90
24902;DHT22;31328;51.402;0.016;2022-10-13T00:10:46;14.50;99.90
24902;DHT22;31328;51.402;0.016;2022-10-13T00:13:14;14.50;99.90
24902;DHT22;31328;51.402;0.016;2022-10-13T00:15:43;14.50;99.90
24902;DHT22;31328;51.402;0.016;2022-10-13T00:18:09;14.50;99.90
24902;DHT22;31328;51.402;0.016;2022-10-13T00:20:43;14.50;99.90
24902;DHT22;31328;51.402;0.016;2022-10-13T00:23:09;14.50;99.90
24902;DHT22;31328;51.402;0.016;2022-10-13T00:25:41;14.40;99.90
24902;DHT22;31328;51.402;0.016;2022-10-13T00:28:08;14.40;99.90
24902;DHT22;31328;51.402;0.016;2022-10-13T00:30:36;14.40;99.90
24902;DHT22;31328;51.402;0.016;2022-10-13T00:33:03;14.40;99.90
24902;DHT22;31328;51.402;0.016;2022-10-13T00:35:29;14.40;99.90
24902;DHT22;31328;51.402;0.016;2022-10-13T00:37:55;14.30;99.90
24902;DHT22;31328;51.402;0.016;2022-10-13T00:40:22;14.30;99.90
24902;DHT22;31328;51.402;0.016;2022-10-13T00:42:48;14.30;99.90
24902;DHT22;31328;51.402;0.016;2022-10-13T00:45:25;14.30;99.90
24902;DHT22;31328;51.402;0.016;2022-10-13T00:47:59;14.30;99.90
24902;DHT22;31328;51.402;0.016;2022-10-13T00:50:34;14.30;99.90
24902;DHT22;31328;51.402;0.016;2022-10-13T00:53:04;14.30;99.90
24902;DHT22;31328;51.402;0.016;2022-10-13T00:55:33;14.30;99.90
24902;DHT22;31328;51.402;0.016;2022-10-13T00:58:05;14.30;99.90
24902;DHT22;31328;51.402;0.016;2022-10-13T01:00:33;14.30;99.90
24902;DHT22;31328;51.402;0.016;2022-10-13T01:03:03;14.30;99.90
24902;DHT22;31328;51.402;0.016;2022-10-13T01:05:30;14.20;99.90
24902;DHT22;31328;51.402;0.016;2022-10-13T01:07:57;14.20;99.90
24902;DHT22;31328;51.402;0.016;2022-10-13T01:10:48;14.20;99.90
24902;DHT22;31328;51.402;0.016;2022-10-13T01:13:30;14.20;99.90
24902;DHT22;31328;51.402;0.016;2022-10-13T01:21:32;14.20;99.90
24902;DHT22;31328;51.402;0.016;2022-10-13T01:29:44;14.20;99.90
24902;DHT22;31328;51.402;0.016;2022-10-13T01:34:58;14.30;99.90
24902;DHT22;31328;51.402;0.016;2022-10-13T01:40:25;14.30;99.90
24902;DHT22;31328;51.402;0.016;2022-10-13T01:43:05;14.20;99.90
24902;DHT22;31328;51.402;0.016;2022-10-13T01:45:41;14.20;99.90
24902;DHT22;31328;51.402;0.016;2022-10-13T01:48:12;14.20;99.90
24902;DHT22;31328;51.402;0.016;2022-10-13T01:50:41;14.20;99.90
24902;DHT22;31328;51.402;0.016;2022-10-13T01:53:09;14.20;99.90
24902;DHT22;31328;51.402;0.016;2022-10-13T01:55:46;14.10;99.90
24902;DHT22;31328;51.402;0.016;2022-10-13T01:58:13;14.10;99.90
24902;DHT22;31328;51.402;0.016;2022-10-13T02:00:43;14.10;99.90
24902;DHT22;31328;51.402;0.016;2022-10-13T02:03:35;14.10;99.90
24902;DHT22;31328;51.402;0.016;2022-10-13T02:06:21;14.10;99.90
24902;DHT22;31328;51.402;0.016;2022-10-13T02:09:49;14.10;99.90
24902;DHT22;31328;51.402;0.016;2022-10-13T02:11:56;14.10;99.90
24902;DHT22;31328;51.402;0.016;2022-10-13T02:14:26;14.00;99.90
24902;DHT22;31328;51.402;0.016;2022-10-13T02:16:57;14.00;99.90
24902;DHT22;31328;51.402;0.016;2022-10-13T02:19:26;14.10;99.90
24902;DHT22;31328;51.402;0.016;2022-10-13T02:21:54;14.00;99.90
24902;DHT22;31328;51.402;0.016;2022-10-13T02:24:21;14.00;99.90
24902;DHT22;31328;51.402;0.016;2022-10-13T02:26:49;14.00;99.90
24902;DHT22;31328;51.402;0.016;2022-10-13T02:29:18;14.00;99.90
24902;DHT22;31328;51.402;0.016;2022-10-13T02:31:45;14.00;99.90
24902;DHT22;31328;51.402;0.016;2022-10-13T02:34:12;14.00;99.90
24902;DHT22;31328;51.402;0.016;2022-10-13T02:36:39;14.00;99.90
24902;DHT22;31328;51.402;0.016;2022-10-13T02:39:07;14.00;99.90
24902;DHT22;31328;51.402;0.016;2022-10-13T02:41:34;14.00;99.90
24902;DHT22;31328;51.402;0.016;2022-10-13T02:44:00;14.00;99.90
24902;DHT22;31328;51.402;0.016;2022-10-13T02:46:34;13.90;99.90
24902;DHT22;31328;51.402;0.016;2022-10-13T02:49:00;13.90;99.90
24902;DHT22;31328;51.402;0.016;2022-10-13T02:51:28;13.90;99.90
24902;DHT22;31328;51.402;0.016;2022-10-13T02:53:54;13.90;99.90
24902;DHT22;31328;51.402;0.016;2022-10-13T02:56:20;13.90;99.90
24902;DHT22;31328;51.402;0.016;2022-10-13T02:58:47;13.90;99.90
24902;DHT22;31328;51.402;0.016;2022-10-13T03:01:14;13.90;99.90
24902;DHT22;31328;51.402;0.016;2022-10-13T03:03:41;13.90;99.90
24902;DHT22;31328;51.402;0.016;2022-10-13T03:06:07;13.90;99.90
24902;DHT22;31328;51.402;0.016;2022-10-13T03:08:34;13.90;99.90
24902;DHT22;31328;51.402;0.016;2022-10-13T03:11:00;13.90;99.90
24902;DHT22;31328;51.402;0.016;2022-10-13T03:13:27;13.90;99.90
24902;DHT22;31328;51.402;0.016;2022-10-13T03:15:53;13.90;99.90
24902;DHT22;31328;51.402;0.016;2022-10-13T03:18:19;13.90;99.90
24902;DHT22;31328;51.402;0.016;2022-10-13T03:21:02;13.90;99.90
24902;DHT22;31328;51.402;0.016;2022-10-13T03:23:30;13.90;99.90
24902;DHT22;31328;51.402;0.016;2022-10-13T03:25:56;13.90;99.90
24902;DHT22;31328;51.402;0.016;2022-10-13T03:28:23;13.90;99.90
24902;DHT22;31328;51.402;0.016;2022-10-13T03:31:02;13.90;99.90
24902;DHT22;31328;51.402;0.016;2022-10-13T03:33:29;13.90;99.90
24902;DHT22;31328;51.402;0.016;2022-10-13T03:36:00;13.90;99.90
24902;DHT22;31328;51.402;0.016;2022-10-13T03:38:31;13.90;99.90
24902;DHT22;31328;51.402;0.016;2022-10-13T03:41:07;13.90;99.90
24902;DHT22;31328;51.402;0.016;2022-10-13T03:43:34;13.90;99.90
24902;DHT22;31328;51.402;0.016;2022-10-13T03:46:02;13.90;99.90
24902;DHT22;31328;51.402;0.016;2022-10-13T03:48:29;13.90;99.90
24902;DHT22;31328;51.402;0.016;2022-10-13T03:50:56;13.90;99.90
24902;DHT22;31328;51.402;0.016;2022-10-13T03:53:23;13.90;99.90
24902;DHT22;31328;51.402;0.016;2022-10-13T03:55:55;13.90;99.90
24902;DHT22;31328;51.402;0.016;2022-10-13T03:58:23;13.90;99.90
24902;DHT22;31328;51.402;0.016;2022-10-13T04:00:52;13.90;99.90
24902;DHT22;31328;51.402;0.016;2022-10-13T04:03:18;13.90;99.90
24902;DHT22;31328;51.402;0.016;2022-10-13T04:05:45;13.90;99.90
24902;DHT22;31328;51.402;0.016;2022-10-13T04:08:11;13.90;99.90
24902;DHT22;31328;51.402;0.016;2022-10-13T04:10:38;13.90;99.90
24902;DHT22;31328;51.402;0.016;2022-10-13T04:13:05;13.90;99.90
24902;DHT22;31328;51.402;0.016;2022-10-13T04:15:39;13.90;99.90
24902;DHT22;31328;51.402;0.016;2022-10-13T04:18:06;13.90;99.90
24902;DHT22;31328;51.402;0.016;2022-10-13T04:20:38;13.90;99.90
24902;DHT22;31328;51.402;0.016;2022-10-13T04:23:06;13.90;99.90
24902;DHT22;31328;51.402;0.016;2022-10-13T04:25:38;13.90;99.90
24902;DHT22;31328;51.402;0.016;2022-10-13T04:28:05;13.90;99.90
24902;DHT22;31328;51.402;0.016;2022-10-13T04:30:35;13.90;99.90
24902;DHT22;31328;51.402;0.016;2022-10-13T04:33:02;13.90;99.90
24902;DHT22;31328;51.402;0.016;2022-10-13T04:35:28;13.80;99.90
24902;DHT22;31328;51.402;0.016;2022-10-13T04:37:54;13.80;99.90
24902;DHT22;31328;51.402;0.016;2022-10-13T04:40:24;13.80;99.90
24902;DHT22;31328;51.402;0.016;2022-10-13T04:42:51;13.80;99.90
24902;DHT22;31328;51.402;0.016;2022-10-13T04:45:17;13.80;99.90
24902;DHT22;31328;51.402;0.016;2022-10-13T04:47:49;13.80;99.90
24902;DHT22;31328;51.402;0.016;2022-10-13T04:50:15;13.80;99.90
24902;DHT22;31328;51.402;0.016;2022-10-13T04:52:42;13.80;99.90
24902;DHT22;31328;51.402;0.016;2022-10-13T04:55:09;13.80;99.90
24902;DHT22;31328;51.402;0.016;2022-10-13T04:57:35;13.80;99.90
24902;DHT22;31328;51.402;0.016;2022-10-13T05:00:03;13.80;99.90
24902;DHT22;31328;51.402;0.016;2022-10-13T05:02:36;13.80;99.90
24902;DHT22;31328;51.402;0.016;2022-10-13T05:05:04;13.80;99.90
24902;DHT22;31328;51.402;0.016;2022-10-13T05:07:31;13.80;99.90
24902;DHT22;31328;51.402;0.016;2022-10-13T05:09:57;13.80;99.90
24902;DHT22;31328;51.402;0.016;2022-10-13T05:12:23;13.80;99.90
24902;DHT22;31328;51.402;0.016;2022-10-13T05:14:50;13.80;99.90
24902;DHT22;31328;51.402;0.016;2022-10-13T05:17:16;13.80;99.90
24902;DHT22;31328;51.402;0.016;2022-10-13T05:19:43;13.80;99.90
24902;DHT22;31328;51.402;0.016;2022-10-13T05:22:09;13.80;99.90
24902;DHT22;31328;51.402;0.016;2022-10-13T05:24:37;13.80;99.90
24902;DHT22;31328;51.402;0.016;2022-10-13T05:27:05;13.80;99.90
24902;DHT22;31328;51.402;0.016;2022-10-13T05:29:32;13.80;99.90
24902;DHT22;31328;51.402;0.016;2022-10-13T05:31:58;13.80;99.90
24902;DHT22;31328;51.402;0.016;2022-10-13T05:34:25;13.80;99.90
24902;DHT22;31328;51.402;0.016;2022-10-13T05:36:51;13.80;99.90
24902;DHT22;31328;51.402;0.016;2022-10-13T05:39:17;13.80;99.90
24902;DHT22;31328;51.402;0.016;2022-10-13T05:41:44;13.80;99.90
24902;DHT22;31328;51.402;0.016;2022-10-13T05:44:20;13.80;99.90
24902;DHT22;31328;51.402;0.016;2022-10-13T05:46:53;13.80;99.90
24902;DHT22;31328;51.402;0.016;2022-10-13T05:49:19;13.80;99.90
24902;DHT22;31328;51.402;0.016;2022-10-13T05:51:53;13.80;99.90
24902;DHT22;31328;51.402;0.016;2022-10-13T05:55:02;13.90;99.90
24902;DHT22;31328;51.402;0.016;2022-10-13T05:57:24;13.90;99.90
24902;DHT22;31328;51.402;0.016;2022-10-13T05:59:58;13.80;99.90
24902;DHT22;31328;51.402;0.016;2022-10-13T06:02:29;13.90;99.90
24902;DHT22;31328;51.402;0.016;2022-10-13T06:05:01;13.90;99.90
24902;DHT22;31328;51.402;0.016;2022-10-13T06:07:28;13.90;99.90
24902;DHT22;31328;51.402;0.016;2022-10-13T06:09:56;13.90;99.90
24902;DHT22;31328;51.402;0.016;2022-10-13T06:12:23;13.90;99.90
24902;DHT22;31328;51.402;0.016;2022-10-13T06:14:49;13.90;99.90
24902;DHT22;31328;51.402;0.016;2022-10-13T06:17:16;13.90;99.90
24902;DHT22;31328;51.402;0.016;2022-10-13T06:19:42;13.90;99.90
24902;DHT22;31328;51.402;0.016;2022-10-13T06:22:10;13.90;99.90
24902;DHT22;31328;51.402;0.016;2022-10-13T06:24:36;14.00;99.90
24902;DHT22;31328;51.402;0.016;2022-10-13T06:27:05;14.00;99.90
24902;DHT22;31328;51.402;0.016;2022-10-13T06:29:31;13.90;99.90
24902;DHT22;31328;51.402;0.016;2022-10-13T06:31:58;14.00;99.90
24902;DHT22;31328;51.402;0.016;2022-10-13T06:34:24;14.00;99.90
24902;DHT22;31328;51.402;0.016;2022-10-13T06:36:51;14.00;99.90
24902;DHT22;31328;51.402;0.016;2022-10-13T06:39:17;14.00;99.90
24902;DHT22;31328;51.402;0.016;2022-10-13T06:41:43;14.00;99.90
24902;DHT22;31328;51.402;0.016;2022-10-13T06:44:09;14.00;99.90
24902;DHT22;31328;51.402;0.016;2022-10-13T06:46:36;14.00;99.90
24902;DHT22;31328;51.402;0.016;2022-10-13T06:49:02;14.00;99.90
24902;DHT22;31328;51.402;0.016;2022-10-13T06:51:28;14.00;99.90
24902;DHT22;31328;51.402;0.016;2022-10-13T06:53:55;14.00;99.90
24902;DHT22;31328;51.402;0.016;2022-10-13T06:56:25;14.10;99.90
24902;DHT22;31328;51.402;0.016;2022-10-13T06:58:51;14.10;99.90
24902;DHT22;31328;51.402;0.016;2022-10-13T07:01:17;14.10;99.90
24902;DHT22;31328;51.402;0.016;2022-10-13T07:03:47;14.10;99.90
24902;DHT22;31328;51.402;0.016;2022-10-13T07:06:13;14.10;99.90
24902;DHT22;31328;51.402;0.016;2022-10-13T07:08:40;14.10;99.90
24902;DHT22;31328;51.402;0.016;2022-10-13T07:11:08;14.10;99.90
24902;DHT22;31328;51.402;0.016;2022-10-13T07:13:35;14.20;99.90
24902;DHT22;31328;51.402;0.016;2022-10-13T07:16:02;14.20;99.90
24902;DHT22;31328;51.402;0.016;2022-10-13T07:18:30;14.20;99.90
24902;DHT22;31328;51.402;0.016;2022-10-13T07:20:58;14.20;99.90
24902;DHT22;31328;51.402;0.016;2022-10-13T07:23:25;14.20;99.90
24902;DHT22;31328;51.402;0.016;2022-10-13T07:25:52;14.20;99.90
24902;DHT22;31328;51.402;0.016;2022-10-13T07:28:18;14.20;99.90
24902;DHT22;31328;51.402;0.016;2022-10-13T07:30:45;14.30;99.90
24902;DHT22;31328;51.402;0.016;2022-10-13T07:33:11;14.30;99.90
24902;DHT22;31328;51.402;0.016;2022-10-13T07:35:38;14.20;99.90
24902;DHT22;31328;51.402;0.016;2022-10-13T07:38:05;14.30;99.90
24902;DHT22;31328;51.402;0.016;2022-10-13T07:40:32;14.30;99.90
24902;DHT22;31328;51.402;0.016;2022-10-13T07:42:58;14.30;99.90
24902;DHT22;31328;51.402;0.016;2022-10-13T07:45:25;14.30;99.90
24902;DHT22;31328;51.402;0.016;2022-10-13T07:47:51;14.20;99.90
24902;DHT22;31328;51.402;0.016;2022-10-13T07:50:18;14.30;99.90
24902;DHT22;31328;51.402;0.016;2022-10-13T07:52:44;14.30;99.90
24902;DHT22;31328;51.402;0.016;2022-10-13T07:55:11;14.30;99.90
24902;DHT22;31328;51.402;0.016;2022-10-13T07:57:37;14.40;99.90
24902;DHT22;31328;51.402;0.016;2022-10-13T08:00:04;14.40;99.90
24902;DHT22;31328;51.402;0.016;2022-10-13T08:02:38;14.40;99.90
24902;DHT22;31328;51.402;0.016;2022-10-13T08:05:05;14.50;99.90
24902;DHT22;31328;51.402;0.016;2022-10-13T08:07:31;14.50;99.90
24902;DHT22;31328;51.402;0.016;2022-10-13T08:09:57;14.50;99.90
24902;DHT22;31328;51.402;0.016;2022-10-13T08:12:23;14.60;99.90
24902;DHT22;31328;51.402;0.016;2022-10-13T08:14:50;14.60;99.90
24902;DHT22;31328;51.402;0.016;2022-10-13T08:17:16;14.60;99.90
24902;DHT22;31328;51.402;0.016;2022-10-13T08:19:43;14.70;99.90
24902;DHT22;31328;51.402;0.016;2022-10-13T08:22:10;14.80;99.90
24902;DHT22;31328;51.402;0.016;2022-10-13T08:24:36;14.80;99.90
24902;DHT22;31328;51.402;0.016;2022-10-13T08:27:02;14.90;99.90
24902;DHT22;31328;51.402;0.016;2022-10-13T08:29:29;15.00;99.90
24902;DHT22;31328;51.402;0.016;2022-10-13T08:31:55;15.00;99.90
24902;DHT22;31328;51.402;0.016;2022-10-13T08:34:23;15.10;99.90
24902;DHT22;31328;51.402;0.016;2022-10-13T08:36:50;15.20;99.90
24902;DHT22;31328;51.402;0.016;2022-10-13T08:39:20;15.20;99.90
24902;DHT22;31328;51.402;0.016;2022-10-13T08:41:46;15.30;99.90
24902;DHT22;31328;51.402;0.016;2022-10-13T08:44:35;15.30;99.90
24902;DHT22;31328;51.402;0.016;2022-10-13T08:50:03;15.40;99.90
24902;DHT22;31328;51.402;0.016;2022-10-13T08:52:53;15.40;99.90
24902;DHT22;31328;51.402;0.016;2022-10-13T08:57:52;15.50;99.90
24902;DHT22;31328;51.402;0.016;2022-10-13T09:00:25;15.60;99.90
24902;DHT22;31328;51.402;0.016;2022-10-13T09:02:52;15.70;99.90
24902;DHT22;31328;51.402;0.016;2022-10-13T09:05:36;15.70;99.90
24902;DHT22;31328;51.402;0.016;2022-10-13T09:08:15;15.80;99.90
24902;DHT22;31328;51.402;0.016;2022-10-13T09:10:48;15.80;99.90
24902;DHT22;31328;51.402;0.016;2022-10-13T09:13:18;15.90;99.90
24902;DHT22;31328;51.402;0.016;2022-10-13T09:15:47;16.00;99.90
24902;DHT22;31328;51.402;0.016;2022-10-13T09:18:16;16.00;99.90
24902;DHT22;31328;51.402;0.016;2022-10-13T09:20:42;16.10;99.90
24902;DHT22;31328;51.402;0.016;2022-10-13T09:23:16;16.10;99.90
24902;DHT22;31328;51.402;0.016;2022-10-13T09:25:48;16.10;99.90
24902;DHT22;31328;51.402;0.016;2022-10-13T09:28:17;16.10;99.90
24902;DHT22;31328;51.402;0.016;2022-10-13T09:30:45;16.10;99.90
24902;DHT22;31328;51.402;0.016;2022-10-13T09:33:19;16.10;99.90
24902;DHT22;31328;51.402;0.016;2022-10-13T09:38:25;16.10;99.90
24902;DHT22;31328;51.402;0.016;2022-10-13T09:43:42;16.00;99.90
24902;DHT22;31328;51.402;0.016;2022-10-13T09:46:30;16.10;99.90
24902;DHT22;31328;51.402;0.016;2022-10-13T09:49:36;16.10;99.90
24902;DHT22;31328;51.402;0.016;2022-10-13T09:52:15;16.20;99.90
24902;DHT22;31328;51.402;0.016;2022-10-13T09:54:55;16.30;99.90
24902;DHT22;31328;51.402;0.016;2022-10-13T09:57:36;16.40;99.90
24902;DHT22;31328;51.402;0.016;2022-10-13T10:00:19;16.50;99.90
24902;DHT22;31328;51.402;0.016;2022-10-13T10:03:18;16.50;99.90
24902;DHT22;31328;51.402;0.016;2022-10-13T10:10:48;16.60;99.90
24902;DHT22;31328;51.402;0.016;2022-10-13T10:13:15;16.70;99.90
24902;DHT22;31328;51.402;0.016;2022-10-13T10:18:31;16.70;99.90
24902;DHT22;31328;51.402;0.016;2022-10-13T10:28:46;16.70;99.90
24902;DHT22;31328;51.402;0.016;2022-10-13T10:45:25;16.50;99.90
24902;DHT22;31328;51.402;0.016;2022-10-13T10:48:02;16.40;99.90
24902;DHT22;31328;51.402;0.016;2022-10-13T10:50:30;16.30;99.90
24902;DHT22;31328;51.402;0.016;2022-10-13T10:53:10;16.30;99.90
24902;DHT22;31328;51.402;0.016;2022-10-13T10:58:19;16.20;99.90
24902;DHT22;31328;51.402;0.016;2022-10-13T11:08:44;16.10;99.90
24902;DHT22;31328;51.402;0.016;2022-10-13T11:19:26;16.10;99.90
24902;DHT22;31328;51.402;0.016;2022-10-13T11:24:45;16.10;99.90
24902;DHT22;31328;51.402;0.016;2022-10-13T11:35:17;16.10;99.90
24902;DHT22;31328;51.402;0.016;2022-10-13T11:37:53;16.20;99.90
24902;DHT22;31328;51.402;0.016;2022-10-13T11:43:35;16.20;99.90
24902;DHT22;31328;51.402;0.016;2022-10-13T11:54:18;16.20;99.90
24902;DHT22;31328;51.402;0.016;2022-10-13T11:59:31;16.20;99.90
24902;DHT22;31328;51.402;0.016;2022-10-13T12:04:37;16.30;99.90
24902;DHT22;31328;51.402;0.016;2022-10-13T12:07:08;16.20;99.90
24902;DHT22;31328;51.402;0.016;2022-10-13T12:09:48;16.20;99.90
24902;DHT22;31328;51.402;0.016;2022-10-13T12:12:16;16.20;99.90
24902;DHT22;31328;51.402;0.016;2022-10-13T12:14:46;16.20;99.90
24902;DHT22;31328;51.402;0.016;2022-10-13T12:20:02;16.20;99.90
24902;DHT22;31328;51.402;0.016;2022-10-13T12:22:30;16.20;99.90
24902;DHT22;31328;51.402;0.016;2022-10-13T12:25:03;16.20;99.90
24902;DHT22;31328;51.402;0.016;2022-10-13T12:30:23;16.30;99.90
24902;DHT22;31328;51.402;0.016;2022-10-13T12:32:55;16.30;99.90
24902;DHT22;31328;51.402;0.016;2022-10-13T12:35:33;16.30;99.90
24902;DHT22;31328;51.402;0.016;2022-10-13T12:38:02;16.40;99.90
24902;DHT22;31328;51.402;0.016;2022-10-13T12:40:33;16.50;99.90
24902;DHT22;31328;51.402;0.016;2022-10-13T12:43:00;16.50;99.90
24902;DHT22;31328;51.402;0.016;2022-10-13T12:45:30;16.60;99.90
24902;DHT22;31328;51.402;0.016;2022-10-13T12:47:57;16.60;99.90
24902;DHT22;31328;51.402;0.016;2022-10-13T12:53:17;16.60;99.90
24902;DHT22;31328;51.402;0.016;2022-10-13T12:55:50;16.70;99.90
24902;DHT22;31328;51.402;0.016;2022-10-13T12:58:22;16.70;99.90
24902;DHT22;31328;51.402;0.016;2022-10-13T13:01:30;16.70;99.90
24902;DHT22;31328;51.402;0.016;2022-10-13T13:03:57;16.70;99.90
24902;DHT22;31328;51.402;0.016;2022-10-13T13:06:29;16.80;99.90
24902;DHT22;31328;51.402;0.016;2022-10-13T13:09:29;16.80;99.90
24902;DHT22;31328;51.402;0.016;2022-10-13T13:14:45;16.80;99.90
24902;DHT22;31328;51.402;0.016;2022-10-13T13:19:46;16.80;99.90
24902;DHT22;31328;51.402;0.016;2022-10-13T13:22:13;16.90;99.90
24902;DHT22;31328;51.402;0.016;2022-10-13T13:24:40;16.80;99.90
24902;DHT22;31328;51.402;0.016;2022-10-13T13:29:40;16.90;99.90
24902;DHT22;31328;51.402;0.016;2022-10-13T13:32:14;16.90;99.90
24902;DHT22;31328;51.402;0.016;2022-10-13T13:34:41;16.90;99.90
24902;DHT22;31328;51.402;0.016;2022-10-13T13:37:13;16.90;99.90
24902;DHT22;31328;51.402;0.016;2022-10-13T13:39:42;16.90;99.90
24902;DHT22;31328;51.402;0.016;2022-10-13T13:42:12;17.00;99.90
24902;DHT22;31328;51.402;0.016;2022-10-13T13:44:39;17.00;99.90
24902;DHT22;31328;51.402;0.016;2022-10-13T13:47:26;17.00;99.90
24902;DHT22;31328;51.402;0.016;2022-10-13T13:49:54;17.10;99.90
24902;DHT22;31328;51.402;0.016;2022-10-13T13:52:22;17.10;99.90
24902;DHT22;31328;51.402;0.016;2022-10-13T13:54:49;17.10;99.90
24902;DHT22;31328;51.402;0.016;2022-10-13T13:57:16;17.10;99.90
24902;DHT22;31328;51.402;0.016;2022-10-13T13:59:43;17.10;99.90
24902;DHT22;31328;51.402;0.016;2022-10-13T14:02:17;17.20;99.70
24902;DHT22;31328;51.402;0.016;2022-10-13T14:04:43;17.20;99.60
24902;DHT22;31328;51.402;0.016;2022-10-13T14:07:10;17.20;99.70
24902;DHT22;31328;51.402;0.016;2022-10-13T14:09:36;17.30;99.70
24902;DHT22;31328;51.402;0.016;2022-10-13T14:12:03;17.30;99.60
24902;DHT22;31328;51.402;0.016;2022-10-13T14:14:30;17.40;99.30
24902;DHT22;31328;51.402;0.016;2022-10-13T14:16:58;17.40;99.20
24902;DHT22;31328;51.402;0.016;2022-10-13T14:19:24;17.40;99.20
24902;DHT22;31328;51.402;0.016;2022-10-13T14:21:50;17.40;99.20
24902;DHT22;31328;51.402;0.016;2022-10-13T14:24:18;17.50;99.10
24902;DHT22;31328;51.402;0.016;2022-10-13T14:26:44;17.50;99.00
24902;DHT22;31328;51.402;0.016;2022-10-13T14:29:10;17.50;99.00
24902;DHT22;31328;51.402;0.016;2022-10-13T14:31:37;17.50;99.10
24902;DHT22;31328;51.402;0.016;2022-10-13T14:34:03;17.40;99.10
24902;DHT22;31328;51.402;0.016;2022-10-13T14:36:32;17.40;99.20
24902;DHT22;31328;51.402;0.016;2022-10-13T14:38:58;17.30;99.30
24902;DHT22;31328;51.402;0.016;2022-10-13T14:41:24;17.30;99.30
24902;DHT22;31328;51.402;0.016;2022-10-13T14:43:52;17.20;99.10
24902;DHT22;31328;51.402;0.016;2022-10-13T14:46:20;17.10;98.80
24902;DHT22;31328;51.402;0.016;2022-10-13T14:48:46;17.00;99.00
24902;DHT22;31328;51.402;0.016;2022-10-13T14:51:13;17.00;99.40
24902;DHT22;31328;51.402;0.016;2022-10-13T14:53:41;16.90;99.00
24902;DHT22;31328;51.402;0.016;2022-10-13T14:56:21;16.90;99.00
24902;DHT22;31328;51.402;0.016;2022-10-13T14:58:57;16.90;98.80
24902;DHT22;31328;51.402;0.016;2022-10-13T15:01:29;16.90;98.80
24902;DHT22;31328;51.402;0.016;2022-10-13T15:03:55;16.90;98.70
24902;DHT22;31328;51.402;0.016;2022-10-13T15:06:23;16.90;98.80
24902;DHT22;31328;51.402;0.016;2022-10-13T15:08:50;16.90;98.80
24902;DHT22;31328;51.402;0.016;2022-10-13T15:11:18;16.80;98.70
24902;DHT22;31328;51.402;0.016;2022-10-13T15:13:45;16.80;98.80
24902;DHT22;31328;51.402;0.016;2022-10-13T15:16:23;16.80;98.80
24902;DHT22;31328;51.402;0.016;2022-10-13T15:18:50;16.70;98.80
24902;DHT22;31328;51.402;0.016;2022-10-13T15:21:17;16.70;98.90
24902;DHT22;31328;51.402;0.016;2022-10-13T15:23:44;16.70;98.90
24902;DHT22;31328;51.402;0.016;2022-10-13T15:26:13;16.70;99.00
24902;DHT22;31328;51.402;0.016;2022-10-13T15:28:45;16.70;99.00
24902;DHT22;31328;51.402;0.016;2022-10-13T15:31:13;16.70;99.10
24902;DHT22;31328;51.402;0.016;2022-10-13T15:33:48;16.70;98.90
24902;DHT22;31328;51.402;0.016;2022-10-13T15:36:15;16.70;98.80
24902;DHT22;31328;51.402;0.016;2022-10-13T15:38:41;16.70;98.70
24902;DHT22;31328;51.402;0.016;2022-10-13T15:41:09;16.70;98.70
24902;DHT22;31328;51.402;0.016;2022-10-13T15:43:36;16.70;98.70
24902;DHT22;31328;51.402;0.016;2022-10-13T15:46:05;16.70;98.70
24902;DHT22;31328;51.402;0.016;2022-10-13T15:48:33;16.60;99.10
24902;DHT22;31328;51.402;0.016;2022-10-13T15:50:59;16.60;98.80
24902;DHT22;31328;51.402;0.016;2022-10-13T15:53:26;16.50;98.80
24902;DHT22;31328;51.402;0.016;2022-10-13T15:55:52;16.50;98.90
24902;DHT22;31328;51.402;0.016;2022-10-13T15:58:18;16.50;99.10
24902;DHT22;31328;51.402;0.016;2022-10-13T16:00:45;16.40;99.00
24902;DHT22;31328;51.402;0.016;2022-10-13T16:03:16;16.30;99.00
24902;DHT22;31328;51.402;0.016;2022-10-13T16:05:44;16.30;99.20
24902;DHT22;31328;51.402;0.016;2022-10-13T16:08:10;16.20;99.20
24902;DHT22;31328;51.402;0.016;2022-10-13T16:10:38;16.20;99.20
24902;DHT22;31328;51.402;0.016;2022-10-13T16:13:06;16.10;99.30
24902;DHT22;31328;51.402;0.016;2022-10-13T16:15:32;16.00;99.30
24902;DHT22;31328;51.402;0.016;2022-10-13T16:17:59;16.00;99.50
24902;DHT22;31328;51.402;0.016;2022-10-13T16:20:25;15.90;99.50
24902;DHT22;31328;51.402;0.016;2022-10-13T16:22:52;15.90;99.60
24902;DHT22;31328;51.402;0.016;2022-10-13T16:25:19;15.80;99.60
24902;DHT22;31328;51.402;0.016;2022-10-13T16:27:45;15.70;99.60
24902;DHT22;31328;51.402;0.016;2022-10-13T16:30:11;15.60;99.90
24902;DHT22;31328;51.402;0.016;2022-10-13T16:32:38;15.60;99.70
24902;DHT22;31328;51.402;0.016;2022-10-13T16:35:06;15.60;99.80
24902;DHT22;31328;51.402;0.016;2022-10-13T16:37:32;15.50;99.90
24902;DHT22;31328;51.402;0.016;2022-10-13T16:39:59;15.40;99.90
24902;DHT22;31328;51.402;0.016;2022-10-13T16:42:25;15.30;99.90
24902;DHT22;31328;51.402;0.016;2022-10-13T16:44:51;15.30;99.90
24902;DHT22;31328;51.402;0.016;2022-10-13T16:47:18;15.20;99.90
24902;DHT22;31328;51.402;0.016;2022-10-13T16:49:44;15.10;99.90
24902;DHT22;31328;51.402;0.016;2022-10-13T16:52:11;15.10;99.90
24902;DHT22;31328;51.402;0.016;2022-10-13T16:54:38;15.00;99.90
24902;DHT22;31328;51.402;0.016;2022-10-13T16:57:04;14.90;99.90
24902;DHT22;31328;51.402;0.016;2022-10-13T16:59:30;14.90;99.90
24902;DHT22;31328;51.402;0.016;2022-10-13T17:01:57;14.90;99.90
24902;DHT22;31328;51.402;0.016;2022-10-13T17:04:24;14.80;99.90
24902;DHT22;31328;51.402;0.016;2022-10-13T17:06:50;14.80;99.90
24902;DHT22;31328;51.402;0.016;2022-10-13T17:09:16;14.80;99.90
24902;DHT22;31328;51.402;0.016;2022-10-13T17:11:44;14.70;99.90
24902;DHT22;31328;51.402;0.016;2022-10-13T17:14:11;14.70;99.90
24902;DHT22;31328;51.402;0.016;2022-10-13T17:16:37;14.60;99.90
24902;DHT22;31328;51.402;0.016;2022-10-13T17:19:04;14.60;99.90
24902;DHT22;31328;51.402;0.016;2022-10-13T17:21:35;14.50;99.90
24902;DHT22;31328;51.402;0.016;2022-10-13T17:24:03;14.50;99.90
24902;DHT22;31328;51.402;0.016;2022-10-13T17:26:31;14.50;99.90
24902;DHT22;31328;51.402;0.016;2022-10-13T17:28:58;14.40;99.90
24902;DHT22;31328;51.402;0.016;2022-10-13T17:31:24;14.40;99.90
24902;DHT22;31328;51.402;0.016;2022-10-13T17:33:51;14.30;99.90
24902;DHT22;31328;51.402;0.016;2022-10-13T17:36:23;14.30;99.90
24902;DHT22;31328;51.402;0.016;2022-10-13T17:38:50;14.20;99.90
24902;DHT22;31328;51.402;0.016;2022-10-13T17:41:17;14.20;99.90
24902;DHT22;31328;51.402;0.016;2022-10-13T17:43:49;14.20;99.90